createdAt,value
2018-08-12T00:00:35.697Z,0.00
2018-08-12T00:01:35.599Z,0.00
2018-08-12T00:02:35.093Z,0.00
2018-08-12T00:03:35.215Z,0.00
2018-08-12T00:04:35.484Z,0.00
2018-08-12T00:05:35.190Z,0.00
2018-08-12T00:06:35.118Z,0.00
2018-08-12T00:07:35.009Z,0.00
2018-08-12T00:08:35.287Z,0.00
2018-08-12T00:09:34.973Z,0.00
2018-08-12T00:10:35.101Z,0.00
2018-08-12T00:11:34.934Z,0.00
2018-08-12T00:12:36.225Z,0.00
2018-08-12T00:13:34.903Z,0.00
2018-08-12T00:15:35.405Z,0.00
2018-08-12T00:16:35.031Z,0.00
2018-08-12T00:17:34.913Z,0.00
2018-08-12T00:18:34.978Z,0.00
2018-08-12T00:20:34.796Z,0.00
2018-08-12T00:22:34.803Z,0.00
2018-08-12T00:23:35.578Z,0.00
2018-08-12T00:24:34.781Z,0.00
2018-08-12T00:25:34.782Z,0.00
2018-08-12T00:26:34.892Z,0.00
2018-08-12T00:27:34.725Z,0.00
2018-08-12T00:28:34.885Z,0.00
2018-08-12T00:29:35.101Z,0.00
2018-08-12T00:30:34.845Z,0.00
2018-08-12T00:31:34.699Z,0.00
2018-08-12T00:32:34.651Z,0.00
2018-08-12T00:33:34.646Z,0.00
2018-08-12T00:34:34.616Z,0.00
2018-08-12T00:35:34.896Z,0.00
2018-08-12T00:36:34.682Z,0.00
2018-08-12T00:37:34.504Z,0.00
2018-08-12T00:38:34.487Z,0.00
2018-08-12T00:39:34.472Z,0.00
2018-08-12T00:40:34.459Z,0.00
2018-08-12T00:41:34.734Z,0.00
2018-08-12T00:42:34.662Z,0.00
2018-08-12T00:43:34.404Z,0.00
2018-08-12T00:44:34.509Z,0.00
2018-08-12T00:45:34.372Z,0.00
2018-08-12T00:46:35.707Z,0.00
2018-08-12T00:47:34.764Z,0.00
2018-08-12T00:48:34.397Z,0.00
2018-08-12T00:49:34.302Z,0.00
2018-08-12T00:50:34.290Z,0.00
2018-08-12T00:51:34.315Z,0.00
2018-08-12T00:52:35.609Z,0.00
2018-08-12T00:53:34.539Z,0.00
2018-08-12T00:54:34.219Z,0.00
2018-08-12T00:55:34.297Z,0.00
2018-08-12T00:56:34.183Z,0.00
2018-08-12T00:57:34.555Z,0.00
2018-08-12T00:58:34.584Z,0.00
2018-08-12T00:59:34.506Z,0.00
2018-08-12T01:00:34.282Z,0.00
2018-08-12T01:01:34.487Z,0.00
2018-08-12T01:02:34.398Z,0.00
2018-08-12T01:03:34.084Z,0.00
2018-08-12T01:04:35.308Z,0.00
2018-08-12T01:05:34.643Z,0.00
2018-08-12T01:06:34.518Z,0.00
2018-08-12T01:07:34.206Z,0.00
2018-08-12T01:09:33.977Z,0.00
2018-08-12T01:10:34.109Z,0.00
2018-08-12T01:12:34.231Z,0.00
2018-08-12T01:13:34.226Z,0.00
2018-08-12T01:14:33.938Z,0.00
2018-08-12T01:15:33.936Z,0.00
2018-08-12T01:16:34.019Z,0.00
2018-08-12T01:17:33.836Z,0.00
2018-08-12T01:18:33.991Z,0.00
2018-08-12T01:19:33.800Z,0.00
2018-08-12T01:20:34.426Z,0.00
2018-08-12T01:21:33.764Z,0.00
2018-08-12T01:22:34.024Z,0.00
2018-08-12T01:23:33.918Z,0.00
2018-08-12T01:24:33.764Z,0.00
2018-08-12T01:25:33.973Z,0.00
2018-08-12T01:26:33.681Z,0.00
2018-08-12T01:27:34.317Z,0.00
2018-08-12T01:28:33.700Z,0.00
2018-08-12T01:29:33.690Z,0.00
2018-08-12T01:30:33.822Z,0.00
2018-08-12T01:31:33.705Z,0.00
2018-08-12T01:32:33.691Z,0.00
2018-08-12T01:33:33.571Z,0.00
2018-08-12T01:34:34.053Z,0.00
2018-08-12T01:35:33.535Z,0.00
2018-08-12T01:36:33.871Z,0.00
2018-08-12T01:38:33.541Z,0.00
2018-08-12T01:39:33.464Z,0.00
2018-08-12T01:40:33.608Z,0.00
2018-08-12T01:41:33.811Z,0.00
2018-08-12T01:42:33.732Z,0.00
2018-08-12T01:43:33.721Z,0.00
2018-08-12T01:44:33.381Z,0.00
2018-08-12T01:46:33.416Z,0.00
2018-08-12T01:49:33.499Z,0.00
2018-08-12T01:51:33.278Z,0.00
2018-08-12T01:52:33.560Z,0.00
2018-08-12T01:53:33.250Z,0.00
2018-08-12T01:54:33.522Z,0.00
2018-08-12T01:55:33.254Z,0.00
2018-08-12T01:58:37.847Z,0.00
2018-08-12T02:00:33.421Z,0.00
2018-08-12T02:02:33.089Z,0.00
2018-08-12T02:03:33.071Z,0.00
2018-08-12T02:04:33.353Z,0.00
2018-08-12T02:05:33.037Z,0.00
2018-08-12T02:06:33.421Z,0.00
2018-08-12T02:07:33.452Z,0.00
2018-08-12T02:09:33.067Z,0.00
2018-08-12T02:10:33.788Z,0.00
2018-08-12T02:11:32.927Z,0.00
2018-08-12T02:12:33.214Z,0.00
2018-08-12T02:13:33.233Z,0.00
2018-08-12T02:14:32.873Z,0.00
2018-08-12T02:15:32.862Z,0.00
2018-08-12T02:16:32.992Z,0.00
2018-08-12T02:17:32.822Z,0.00
2018-08-12T02:18:33.109Z,0.00
2018-08-12T02:19:32.960Z,0.00
2018-08-12T02:20:32.777Z,0.00
2018-08-12T02:21:32.753Z,0.00
2018-08-12T02:22:32.901Z,0.00
2018-08-12T02:23:32.721Z,0.00
2018-08-12T02:25:32.716Z,0.00
2018-08-12T02:26:32.876Z,0.00
2018-08-12T02:27:32.724Z,0.00
2018-08-12T02:28:32.838Z,0.00
2018-08-12T02:29:32.619Z,0.00
2018-08-12T02:30:32.899Z,0.00
2018-08-12T02:33:33.034Z,0.00
2018-08-12T02:35:33.897Z,0.00
2018-08-12T02:36:32.800Z,0.00
2018-08-12T02:37:32.772Z,0.00
2018-08-12T02:38:32.475Z,0.00
2018-08-12T02:39:32.447Z,0.00
2018-08-12T02:40:32.433Z,0.00
2018-08-12T02:41:32.569Z,0.00
2018-08-12T02:42:32.792Z,0.00
2018-08-12T02:43:32.864Z,0.00
2018-08-12T02:44:32.460Z,0.00
2018-08-12T02:47:32.560Z,0.00
2018-08-12T02:48:32.302Z,0.00
2018-08-12T02:50:32.672Z,0.00
2018-08-12T02:51:32.525Z,0.00
2018-08-12T02:52:32.239Z,0.00
2018-08-12T02:53:35.391Z,0.00
2018-08-12T02:55:32.475Z,0.00
2018-08-12T02:56:32.163Z,0.00
2018-08-12T02:58:32.709Z,0.00
2018-08-12T02:59:32.219Z,0.00
2018-08-12T03:00:32.093Z,0.00
2018-08-12T03:01:32.072Z,0.00
2018-08-12T03:02:32.053Z,0.00
2018-08-12T03:03:32.340Z,0.00
2018-08-12T03:04:32.020Z,0.00
2018-08-12T03:05:32.210Z,0.00
2018-08-12T03:06:31.989Z,0.00
2018-08-12T03:07:31.981Z,0.00
2018-08-12T03:08:31.953Z,0.00
2018-08-12T03:09:31.991Z,0.00
2018-08-12T03:10:32.269Z,0.00
2018-08-12T03:11:32.050Z,0.00
2018-08-12T03:12:31.935Z,0.00
2018-08-12T03:13:31.868Z,0.00
2018-08-12T03:15:31.834Z,0.00
2018-08-12T03:16:32.081Z,0.00
2018-08-12T03:17:32.201Z,0.00
2018-08-12T03:18:31.791Z,0.00
2018-08-12T03:19:31.762Z,0.00
2018-08-12T03:20:31.771Z,0.00
2018-08-12T03:21:31.729Z,0.00
2018-08-12T03:23:31.913Z,4.00
2018-08-12T03:25:31.970Z,0.00
2018-08-12T03:26:31.658Z,4.00
2018-08-12T03:27:31.627Z,4.00
2018-08-12T03:28:31.608Z,0.00
2018-08-12T03:29:31.743Z,4.00
2018-08-12T03:30:31.583Z,4.00
2018-08-12T03:31:31.860Z,4.00
2018-08-12T03:32:31.850Z,8.00
2018-08-12T03:33:31.705Z,4.00
2018-08-12T03:34:31.508Z,8.00
2018-08-12T03:35:31.841Z,8.00
2018-08-12T03:36:31.475Z,8.00
2018-08-12T03:38:31.790Z,12.00
2018-08-12T03:39:31.425Z,16.00
2018-08-12T03:40:31.409Z,16.00
2018-08-12T03:41:31.585Z,20.00
2018-08-12T03:42:31.481Z,20.00
2018-08-12T03:43:31.349Z,20.00
2018-08-12T03:44:31.636Z,24.00
2018-08-12T03:45:31.324Z,28.00
2018-08-12T03:46:31.301Z,32.00
2018-08-12T03:48:31.555Z,36.00
2018-08-12T03:49:31.259Z,40.00
2018-08-12T03:50:32.073Z,48.00
2018-08-12T03:51:31.303Z,48.00
2018-08-12T03:52:31.260Z,52.00
2018-08-12T03:53:31.190Z,60.00
2018-08-12T03:54:31.220Z,64.00
2018-08-12T03:55:31.157Z,72.00
2018-08-12T03:56:31.674Z,76.00
2018-08-12T03:57:31.148Z,84.00
2018-08-12T03:58:31.091Z,92.00
2018-08-12T03:59:31.087Z,100.00
2018-08-12T04:00:31.114Z,108.00
2018-08-12T04:01:31.037Z,116.00
2018-08-12T04:02:31.122Z,124.00
2018-08-12T04:03:31.303Z,132.00
2018-08-12T04:04:31.287Z,140.00
2018-08-12T04:05:30.985Z,156.00
2018-08-12T04:07:31.054Z,176.00
2018-08-12T04:08:30.979Z,192.00
2018-08-12T04:09:31.112Z,208.00
2018-08-12T04:10:31.460Z,224.00
2018-08-12T04:12:30.848Z,244.00
2018-08-12T04:13:30.884Z,256.00
2018-08-12T04:16:30.888Z,316.00
2018-08-12T04:17:31.110Z,332.00
2018-08-12T04:18:30.868Z,352.00
2018-08-12T04:19:30.914Z,372.00
2018-08-12T04:20:30.718Z,392.00
2018-08-12T04:21:30.696Z,412.00
2018-08-12T04:22:30.674Z,432.00
2018-08-12T04:23:30.718Z,452.00
2018-08-12T04:24:30.942Z,480.00
2018-08-12T04:25:31.024Z,512.00
2018-08-12T04:28:30.588Z,576.00
2018-08-12T04:30:30.616Z,608.00
2018-08-12T04:31:30.979Z,624.00
2018-08-12T04:32:30.505Z,644.00
2018-08-12T04:33:30.483Z,644.00
2018-08-12T04:34:30.532Z,668.00
2018-08-12T04:35:30.773Z,684.00
2018-08-12T04:37:30.474Z,696.00
2018-08-12T04:38:30.697Z,696.00
2018-08-12T04:40:30.472Z,700.00
2018-08-12T04:41:30.347Z,708.00
2018-08-12T04:42:30.333Z,732.00
2018-08-12T04:43:30.467Z,736.00
2018-08-12T04:44:30.311Z,748.00
2018-08-12T04:45:30.684Z,736.00
2018-08-12T04:46:30.275Z,736.00
2018-08-12T04:47:30.660Z,756.00
2018-08-12T04:48:30.331Z,776.00
2018-08-12T04:49:30.984Z,808.00
2018-08-12T04:50:30.200Z,844.00
2018-08-12T04:51:30.935Z,896.00
2018-08-12T04:52:31.658Z,924.00
2018-08-12T04:53:30.212Z,928.00
2018-08-12T04:54:30.197Z,944.00
2018-08-12T04:55:30.431Z,952.00
2018-08-12T04:56:30.104Z,952.00
2018-08-12T04:57:30.383Z,968.00
2018-08-12T04:58:30.727Z,972.00
2018-08-12T04:59:30.057Z,976.00
2018-08-12T05:00:30.213Z,972.00
2018-08-12T05:01:30.056Z,972.00
2018-08-12T05:03:29.973Z,964.00
2018-08-12T05:04:30.355Z,976.00
2018-08-12T05:05:29.942Z,1008.00
2018-08-12T05:06:29.924Z,1044.00
2018-08-12T05:08:29.935Z,1108.00
2018-08-12T05:09:29.875Z,1144.00
2018-08-12T05:10:30.153Z,1168.00
2018-08-12T05:12:29.828Z,1200.00
2018-08-12T05:13:29.808Z,1212.00
2018-08-12T05:14:29.944Z,1188.00
2018-08-12T05:15:29.782Z,1260.00
2018-08-12T05:16:30.056Z,1280.00
2018-08-12T05:17:30.036Z,1312.00
2018-08-12T05:18:29.726Z,1364.00
2018-08-12T05:19:29.743Z,1420.00
2018-08-12T05:21:29.719Z,1520.00
2018-08-12T05:23:29.637Z,1584.00
2018-08-12T05:24:29.965Z,1624.00
2018-08-12T05:25:29.610Z,1664.00
2018-08-12T05:26:29.591Z,1744.00
2018-08-12T05:27:29.668Z,1800.00
2018-08-12T05:28:29.859Z,1780.00
2018-08-12T05:29:29.547Z,1820.00
2018-08-12T05:31:29.513Z,1852.00
2018-08-12T05:32:29.487Z,1904.00
2018-08-12T05:33:29.569Z,1992.00
2018-08-12T05:34:29.454Z,2052.00
2018-08-12T05:36:29.726Z,2248.00
2018-08-12T05:37:29.404Z,2392.00
2018-08-12T05:39:29.425Z,2424.00
2018-08-12T05:40:29.357Z,2428.00
2018-08-12T05:41:29.340Z,2412.00
2018-08-12T05:42:29.424Z,2408.00
2018-08-12T05:43:29.608Z,2364.00
2018-08-12T05:44:29.298Z,2276.00
2018-08-12T05:45:29.343Z,2240.00
2018-08-12T05:46:29.263Z,2256.00
2018-08-12T05:47:29.244Z,2192.00
2018-08-12T05:48:29.269Z,2184.00
2018-08-12T05:49:29.215Z,2152.00
2018-08-12T05:50:29.248Z,2160.00
2018-08-12T05:51:29.377Z,2160.00
2018-08-12T05:52:29.174Z,2124.00
2018-08-12T05:58:29.081Z,2032.00
2018-08-12T05:59:29.361Z,2040.00
2018-08-12T06:00:29.214Z,2068.00
2018-08-12T06:01:29.029Z,2072.00
2018-08-12T06:02:29.021Z,2124.00
2018-08-12T06:04:29.288Z,2112.00
2018-08-12T06:05:28.980Z,2140.00
2018-08-12T06:06:29.060Z,2092.00
2018-08-12T06:08:28.939Z,2080.00
2018-08-12T06:09:29.016Z,2028.00
2018-08-12T06:10:28.900Z,2072.00
2018-08-12T06:11:29.177Z,2036.00
2018-08-12T06:13:28.929Z,2028.00
2018-08-12T06:14:28.838Z,2020.00
2018-08-12T06:15:28.885Z,2180.00
2018-08-12T06:16:28.818Z,2076.00
2018-08-12T06:17:28.837Z,2100.00
2018-08-12T06:18:29.073Z,2216.00
2018-08-12T06:19:28.763Z,2152.00
2018-08-12T06:20:28.742Z,2088.00
2018-08-12T06:21:28.880Z,2140.00
2018-08-12T06:22:29.476Z,2260.00
2018-08-12T06:23:28.798Z,2236.00
2018-08-12T06:24:29.675Z,2236.00
2018-08-12T06:27:28.814Z,2308.00
2018-08-12T06:29:28.615Z,2316.00
2018-08-12T06:30:29.063Z,2232.00
2018-08-12T06:31:29.211Z,2172.00
2018-08-12T06:32:28.574Z,2108.00
2018-08-12T06:33:28.724Z,1976.00
2018-08-12T06:34:28.755Z,2016.00
2018-08-12T06:35:28.689Z,1988.00
2018-08-12T06:36:28.822Z,2016.00
2018-08-12T06:37:28.501Z,2024.00
2018-08-12T06:38:28.484Z,2048.00
2018-08-12T06:39:28.524Z,2064.00
2018-08-12T06:40:28.487Z,2036.00
2018-08-12T06:41:28.448Z,1952.00
2018-08-12T06:42:28.726Z,1856.00
2018-08-12T06:43:28.423Z,1804.00
2018-08-12T06:44:28.451Z,1736.00
2018-08-12T06:47:28.473Z,1796.00
2018-08-12T06:48:28.345Z,1796.00
2018-08-12T06:49:28.627Z,1820.00
2018-08-12T06:50:28.311Z,1816.00
2018-08-12T06:52:28.332Z,1848.00
2018-08-12T06:53:28.422Z,1896.00
2018-08-12T06:54:28.261Z,1992.00
2018-08-12T06:55:28.625Z,1900.00
2018-08-12T06:56:28.233Z,1916.00
2018-08-12T06:57:28.417Z,1916.00
2018-08-12T06:58:28.202Z,1972.00
2018-08-12T07:00:28.329Z,2212.00
2018-08-12T07:01:28.159Z,2060.00
2018-08-12T07:02:28.449Z,2128.00
2018-08-12T07:03:28.132Z,2008.00
2018-08-12T07:04:28.121Z,1984.00
2018-08-12T07:05:28.109Z,1880.00
2018-08-12T07:07:28.136Z,2056.00
2018-08-12T07:08:28.097Z,2148.00
2018-08-12T07:09:28.354Z,2228.00
2018-08-12T07:10:28.039Z,2316.00
2018-08-12T07:11:28.223Z,2328.00
2018-08-12T07:12:28.013Z,2380.00
2018-08-12T07:13:28.049Z,2352.00
2018-08-12T07:15:27.973Z,2312.00
2018-08-12T07:16:28.293Z,2344.00
2018-08-12T07:18:27.937Z,2348.00
2018-08-12T07:20:28.062Z,2336.00
2018-08-12T07:21:27.894Z,2260.00
2018-08-12T07:22:27.897Z,2316.00
2018-08-12T07:23:28.171Z,2380.00
2018-08-12T07:24:27.850Z,2512.00
2018-08-12T07:25:28.009Z,2780.00
2018-08-12T07:26:28.088Z,2792.00
2018-08-12T07:27:27.873Z,2860.00
2018-08-12T07:28:27.870Z,2920.00
2018-08-12T07:29:27.899Z,2860.00
2018-08-12T07:30:28.094Z,2728.00
2018-08-12T07:31:27.768Z,2520.00
2018-08-12T07:32:28.002Z,2428.00
2018-08-12T07:33:28.097Z,2352.00
2018-08-12T07:34:27.734Z,2916.00
2018-08-12T07:37:27.990Z,2976.00
2018-08-12T07:38:27.837Z,2844.00
2018-08-12T07:39:27.764Z,2844.00
2018-08-12T07:40:27.664Z,2912.00
2018-08-12T07:41:27.655Z,2788.00
2018-08-12T07:42:27.736Z,2708.00
2018-08-12T07:43:27.632Z,2768.00
2018-08-12T07:44:28.412Z,2780.00
2018-08-12T07:45:27.701Z,2728.00
2018-08-12T07:48:27.621Z,2836.00
2018-08-12T07:49:27.643Z,2800.00
2018-08-12T07:50:27.690Z,2948.00
2018-08-12T07:51:27.827Z,2952.00
2018-08-12T07:52:27.518Z,2860.00
2018-08-12T07:53:27.520Z,2692.00
2018-08-12T07:54:27.850Z,2324.00
2018-08-12T07:55:27.564Z,2416.00
2018-08-12T07:56:27.535Z,2500.00
2018-08-12T07:58:27.755Z,2520.00
2018-08-12T07:59:27.426Z,2540.00
2018-08-12T08:00:27.432Z,2604.00
2018-08-12T08:01:27.409Z,2556.00
2018-08-12T08:02:27.544Z,2688.00
2018-08-12T08:03:27.766Z,2780.00
2018-08-12T08:04:27.679Z,2656.00
2018-08-12T08:05:27.379Z,2620.00
2018-08-12T08:07:27.343Z,2592.00
2018-08-12T08:08:27.594Z,2748.00
2018-08-12T08:09:27.343Z,2732.00
2018-08-12T08:10:27.730Z,2744.00
2018-08-12T08:11:27.430Z,2696.00
2018-08-12T08:12:27.302Z,2728.00
2018-08-12T08:13:27.430Z,2572.00
2018-08-12T08:14:27.498Z,2604.00
2018-08-12T08:15:27.313Z,2620.00
2018-08-12T08:16:27.553Z,2452.00
2018-08-12T08:18:27.282Z,2800.00
2018-08-12T08:20:27.258Z,2840.00
2018-08-12T08:22:27.479Z,2888.00
2018-08-12T08:23:27.565Z,2924.00
2018-08-12T08:26:27.551Z,3132.00
2018-08-12T08:27:28.092Z,3232.00
2018-08-12T08:28:27.296Z,3352.00
2018-08-12T08:29:27.156Z,3244.00
2018-08-12T08:30:27.160Z,3384.00
2018-08-12T08:31:27.135Z,3348.00
2018-08-12T08:32:27.628Z,2680.00
2018-08-12T08:33:27.067Z,3004.00
2018-08-12T08:34:27.395Z,3400.00
2018-08-12T08:35:27.212Z,3324.00
2018-08-12T08:36:27.049Z,3436.00
2018-08-12T08:37:27.216Z,3432.00
2018-08-12T08:38:27.123Z,3684.00
2018-08-12T08:39:27.026Z,3308.00
2018-08-12T08:40:27.006Z,2992.00
2018-08-12T08:41:27.538Z,3160.00
2018-08-12T08:42:26.991Z,3376.00
2018-08-12T08:44:27.010Z,3376.00
2018-08-12T08:45:26.998Z,3204.00
2018-08-12T08:46:26.953Z,3168.00
2018-08-12T08:47:26.931Z,3092.00
2018-08-12T08:48:27.216Z,3292.00
2018-08-12T08:49:26.912Z,2856.00
2018-08-12T08:50:26.981Z,3708.00
2018-08-12T08:51:26.888Z,3444.00
2018-08-12T08:52:26.882Z,3644.00
2018-08-12T08:53:26.913Z,3892.00
2018-08-12T08:54:26.860Z,3724.00
2018-08-12T08:55:27.150Z,3464.00
2018-08-12T08:56:26.994Z,3760.00
2018-08-12T08:58:26.910Z,3800.00
2018-08-12T08:59:26.862Z,3724.00
2018-08-12T09:00:26.819Z,4068.00
2018-08-12T09:03:27.978Z,4560.00
2018-08-12T09:05:26.846Z,4332.00
2018-08-12T09:06:26.765Z,4316.00
2018-08-12T09:07:26.744Z,4428.00
2018-08-12T09:08:27.104Z,4556.00
2018-08-12T09:09:26.905Z,4504.00
2018-08-12T09:10:27.018Z,4412.00
2018-08-12T09:11:26.698Z,4372.00
2018-08-12T09:12:26.687Z,4344.00
2018-08-12T09:13:26.803Z,3976.00
2018-08-12T09:14:26.700Z,3348.00
2018-08-12T09:15:27.048Z,3368.00
2018-08-12T09:16:26.790Z,3900.00
2018-08-12T09:17:26.995Z,4228.00
2018-08-12T09:18:26.658Z,4180.00
2018-08-12T09:19:26.677Z,4052.00
2018-08-12T09:20:26.722Z,4152.00
2018-08-12T09:21:26.661Z,4316.00
2018-08-12T09:22:26.749Z,4488.00
2018-08-12T09:23:26.944Z,4648.00
2018-08-12T09:25:26.737Z,3384.00
2018-08-12T09:26:26.724Z,4424.00
2018-08-12T09:27:26.611Z,4088.00
2018-08-12T09:28:27.091Z,4352.00
2018-08-12T09:29:26.856Z,4300.00
2018-08-12T09:30:26.675Z,4784.00
2018-08-12T09:31:26.837Z,4272.00
2018-08-12T09:32:26.809Z,4708.00
2018-08-12T09:33:26.560Z,4476.00
2018-08-12T09:34:26.708Z,3904.00
2018-08-12T09:35:26.880Z,4136.00
2018-08-12T09:36:26.477Z,4668.00
2018-08-12T09:37:26.481Z,4644.00
2018-08-12T09:39:26.608Z,4980.00
2018-08-12T09:40:26.441Z,5120.00
2018-08-12T09:42:26.764Z,5264.00
2018-08-12T09:43:26.515Z,5308.00
2018-08-12T09:44:26.549Z,5048.00
2018-08-12T09:46:26.789Z,5424.00
2018-08-12T09:47:29.402Z,6008.00
2018-08-12T09:48:26.952Z,4464.00
2018-08-12T09:50:26.644Z,4480.00
2018-08-12T09:51:26.595Z,4868.00
2018-08-12T09:52:26.409Z,5112.00
2018-08-12T09:53:26.492Z,5236.00
2018-08-12T09:55:26.628Z,5160.00
2018-08-12T09:56:26.324Z,5068.00
2018-08-12T09:57:26.483Z,5308.00
2018-08-12T09:58:26.702Z,5620.00
2018-08-12T09:59:26.367Z,6072.00
2018-08-12T10:00:26.469Z,6504.00
2018-08-12T10:02:26.745Z,5920.00
2018-08-12T10:03:26.392Z,6060.00
2018-08-12T10:04:26.622Z,5288.00
2018-08-12T10:05:26.263Z,6064.00
2018-08-12T10:06:26.247Z,5388.00
2018-08-12T10:07:26.251Z,6740.00
2018-08-12T10:08:26.269Z,5964.00
2018-08-12T10:10:26.227Z,5936.00
2018-08-12T10:11:26.214Z,5696.00
2018-08-12T10:13:26.233Z,6204.00
2018-08-12T10:15:26.583Z,5636.00
2018-08-12T10:16:26.152Z,5504.00
2018-08-12T10:18:26.160Z,6188.00
2018-08-12T10:19:26.133Z,6444.00
2018-08-12T10:20:26.125Z,6488.00
2018-08-12T10:21:26.224Z,7244.00
2018-08-12T10:23:26.603Z,6516.00
2018-08-12T10:25:26.114Z,5128.00
2018-08-12T10:26:26.082Z,5120.00
2018-08-12T10:31:26.056Z,5904.00
2018-08-12T10:33:26.124Z,5836.00
2018-08-12T10:34:26.081Z,5840.00
2018-08-12T10:35:26.358Z,5632.00
2018-08-12T10:36:26.022Z,5672.00
2018-08-12T10:37:26.431Z,5800.00
2018-08-12T10:38:26.178Z,5836.00
2018-08-12T10:39:26.198Z,5592.00
2018-08-12T10:41:26.206Z,7856.00
2018-08-12T10:42:26.093Z,5768.00
2018-08-12T10:43:25.981Z,5824.00
2018-08-12T10:44:26.289Z,5812.00
2018-08-12T10:45:26.511Z,5872.00
2018-08-12T10:46:25.950Z,6524.00
2018-08-12T10:47:25.943Z,6020.00
2018-08-12T10:48:25.941Z,8380.00
2018-08-12T10:49:25.937Z,7928.00
2018-08-12T10:50:26.138Z,6616.00
2018-08-12T10:51:26.373Z,7508.00
2018-08-12T10:52:25.914Z,7292.00
2018-08-12T10:53:25.923Z,6768.00
2018-08-12T10:54:26.009Z,7636.00
2018-08-12T10:55:25.925Z,7972.00
2018-08-12T10:56:25.903Z,7812.00
2018-08-12T10:57:25.969Z,53408.00
2018-08-12T10:58:26.199Z,9664.00
2018-08-12T10:59:25.984Z,12572.00
2018-08-12T11:00:25.866Z,0.00
2018-08-12T11:02:25.858Z,13376.00
2018-08-12T11:03:26.051Z,9768.00
2018-08-12T11:05:26.147Z,13920.00
2018-08-12T11:06:25.842Z,11144.00
2018-08-12T11:07:25.859Z,11824.00
2018-08-12T11:09:25.872Z,11092.00
2018-08-12T11:10:25.811Z,9500.00
2018-08-12T11:11:26.106Z,10044.00
2018-08-12T11:13:25.795Z,17952.00
2018-08-12T11:14:25.790Z,18080.00
2018-08-12T11:15:25.896Z,19744.00
2018-08-12T11:16:25.788Z,0.00
2018-08-12T11:17:26.124Z,12832.00
2018-08-12T11:19:25.775Z,17888.00
2018-08-12T11:20:25.835Z,17984.00
2018-08-12T11:21:25.903Z,15232.00
2018-08-12T11:22:25.755Z,22944.00
2018-08-12T11:23:26.255Z,30016.00
2018-08-12T11:24:26.388Z,25792.00
2018-08-12T11:25:26.026Z,25472.00
2018-08-12T11:27:25.783Z,46272.00
2018-08-12T11:28:25.774Z,16864.00
2018-08-12T11:29:59.287Z,15776.00
2018-08-12T11:31:25.711Z,15040.00
2018-08-12T11:32:25.762Z,15520.00
2018-08-12T11:33:25.779Z,15840.00
2018-08-12T11:34:25.709Z,14688.00
2018-08-12T11:35:32.283Z,15392.00
2018-08-12T11:37:25.741Z,18272.00
2018-08-12T11:43:25.670Z,18016.00
2018-08-12T11:44:25.804Z,18016.00
2018-08-12T11:46:25.649Z,18368.00
2018-08-12T11:48:26.088Z,13908.00
2018-08-12T11:49:25.631Z,15520.00
2018-08-12T11:50:26.076Z,16960.00
2018-08-12T11:51:25.669Z,16256.00
2018-08-12T11:52:29.328Z,17024.00
2018-08-12T11:53:25.707Z,18496.00
2018-08-12T11:54:25.629Z,20704.00
2018-08-12T11:55:25.905Z,21024.00
2018-08-12T11:56:25.655Z,20448.00
2018-08-12T11:58:25.586Z,17824.00
2018-08-12T12:00:25.574Z,17600.00
2018-08-12T12:01:25.572Z,17376.00
2018-08-12T12:02:26.019Z,17984.00
2018-08-12T12:03:25.675Z,12376.00
2018-08-12T12:05:25.657Z,15168.00
2018-08-12T12:07:25.550Z,17600.00
2018-08-12T12:08:25.547Z,16448.00
2018-08-12T12:09:26.494Z,18528.00
2018-08-12T12:10:25.541Z,16000.00
2018-08-12T12:11:25.533Z,10848.00
2018-08-12T12:13:25.532Z,12640.00
2018-08-12T12:14:25.527Z,12892.00
2018-08-12T12:15:25.572Z,14560.00
2018-08-12T12:16:25.546Z,13824.00
2018-08-12T12:17:25.519Z,15712.00
2018-08-12T12:18:25.518Z,15200.00
2018-08-12T12:19:25.546Z,15264.00
2018-08-12T12:20:25.520Z,19008.00
2018-08-12T12:21:25.865Z,17152.00
2018-08-12T12:22:25.538Z,21056.00
2018-08-12T12:23:25.495Z,19936.00
2018-08-12T12:24:25.596Z,15904.00
2018-08-12T12:25:25.490Z,14976.00
2018-08-12T12:26:25.489Z,15008.00
2018-08-12T12:27:25.634Z,17408.00
2018-08-12T12:28:25.798Z,12580.00
2018-08-12T12:29:25.487Z,12160.00
2018-08-12T12:30:25.476Z,13748.00
2018-08-12T12:31:25.468Z,13564.00
2018-08-12T12:32:25.457Z,11516.00
2018-08-12T12:33:25.656Z,11448.00
2018-08-12T12:34:26.962Z,10964.00
2018-08-12T12:35:25.799Z,9568.00
2018-08-12T12:36:25.443Z,9552.00
2018-08-12T12:37:25.443Z,9788.00
2018-08-12T12:38:25.531Z,10552.00
2018-08-12T12:39:25.579Z,10000.00
2018-08-12T12:40:25.420Z,10068.00
2018-08-12T12:41:25.776Z,9872.00
2018-08-12T12:42:25.488Z,9276.00
2018-08-12T12:43:25.427Z,11944.00
2018-08-12T12:44:25.398Z,14752.00
2018-08-12T12:45:25.438Z,19808.00
2018-08-12T12:46:25.389Z,20128.00
2018-08-12T12:47:25.681Z,18720.00
2018-08-12T12:48:25.399Z,14112.00
2018-08-12T12:49:25.415Z,15328.00
2018-08-12T12:50:26.120Z,14008.00
2018-08-12T12:51:25.413Z,12664.00
2018-08-12T12:52:25.359Z,13100.00
2018-08-12T12:53:25.754Z,12048.00
2018-08-12T12:54:25.395Z,12136.00
2018-08-12T12:55:25.331Z,12288.00
2018-08-12T12:56:25.410Z,13468.00
2018-08-12T12:57:25.368Z,14944.00
2018-08-12T12:58:25.322Z,13496.00
2018-08-12T12:59:25.609Z,14944.00
2018-08-12T13:00:25.309Z,13016.00
2018-08-12T13:01:25.293Z,11672.00
2018-08-12T13:02:25.294Z,10800.00
2018-08-12T13:03:25.367Z,11400.00
2018-08-12T13:04:25.291Z,9612.00
2018-08-12T13:05:25.578Z,10496.00
2018-08-12T13:06:25.279Z,9392.00
2018-08-12T13:07:25.261Z,9136.00
2018-08-12T13:08:25.244Z,10176.00
2018-08-12T13:09:25.288Z,10168.00
2018-08-12T13:10:25.238Z,9868.00
2018-08-12T13:11:25.527Z,9380.00
2018-08-12T13:12:25.293Z,10116.00
2018-08-12T13:14:25.220Z,11708.00
2018-08-12T13:15:25.305Z,9792.00
2018-08-12T13:16:25.196Z,8976.00
2018-08-12T13:17:25.686Z,9924.00
2018-08-12T13:18:25.184Z,8740.00
2018-08-12T13:19:25.166Z,10212.00
2018-08-12T13:20:25.161Z,12836.00
2018-08-12T13:21:25.357Z,12644.00
2018-08-12T13:22:25.159Z,12992.00
2018-08-12T13:26:25.437Z,15712.00
2018-08-12T13:27:25.168Z,16256.00
2018-08-12T13:28:25.153Z,16192.00
2018-08-12T13:29:25.109Z,16064.00
2018-08-12T13:30:25.100Z,16128.00
2018-08-12T13:31:25.111Z,15296.00
2018-08-12T13:32:25.080Z,14368.00
2018-08-12T13:33:26.630Z,44000.00
2018-08-12T13:34:25.075Z,57632.00
2018-08-12T13:35:25.161Z,25280.00
2018-08-12T13:36:25.078Z,17664.00
2018-08-12T13:37:25.048Z,42848.00
2018-08-12T13:39:25.094Z,48416.00
2018-08-12T13:40:25.341Z,66592.00
2018-08-12T13:42:25.036Z,41856.00
2018-08-12T13:43:25.071Z,17440.00
2018-08-12T13:44:25.088Z,16448.00
2018-08-12T13:45:25.067Z,16512.00
2018-08-12T13:46:25.071Z,16032.00
2018-08-12T13:49:25.314Z,14240.00
2018-08-12T13:50:25.060Z,14688.00
2018-08-12T13:54:24.979Z,24192.00
2018-08-12T13:56:25.299Z,22784.00
2018-08-12T13:57:27.107Z,18464.00
2018-08-12T13:58:24.950Z,20512.00
2018-08-12T13:59:24.942Z,15584.00
2018-08-12T14:01:25.043Z,35328.00
2018-08-12T14:02:24.952Z,24864.00
2018-08-12T14:03:25.280Z,16672.00
2018-08-12T14:05:24.934Z,14716.00
2018-08-12T14:06:24.979Z,12276.00
2018-08-12T14:07:24.904Z,14320.00
2018-08-12T14:08:24.904Z,14044.00
2018-08-12T14:12:24.887Z,19616.00
2018-08-12T14:13:24.889Z,16448.00
2018-08-12T14:15:25.016Z,14464.00
2018-08-12T14:17:25.165Z,14304.00
2018-08-12T14:18:25.344Z,8708.00
2018-08-12T14:19:25.067Z,7764.00
2018-08-12T14:20:24.838Z,13248.00
2018-08-12T14:21:24.983Z,12576.00
2018-08-12T14:22:24.843Z,11616.00
2018-08-12T14:24:25.125Z,12748.00
2018-08-12T14:25:24.840Z,12720.00
2018-08-12T14:26:24.812Z,14560.00
2018-08-12T14:27:24.883Z,15232.00
2018-08-12T14:28:24.815Z,17568.00
2018-08-12T14:29:24.804Z,17536.00
2018-08-12T14:30:25.108Z,16992.00
2018-08-12T14:31:24.862Z,15584.00
2018-08-12T14:33:24.854Z,18336.00
2018-08-12T14:36:25.383Z,16320.00
2018-08-12T14:37:24.823Z,18240.00
2018-08-12T14:38:24.908Z,18720.00
2018-08-12T14:40:24.842Z,16256.00
2018-08-12T14:41:24.870Z,13728.00
2018-08-12T14:42:25.094Z,11068.00
2018-08-12T14:43:25.051Z,11952.00
2018-08-12T14:44:25.126Z,16416.00
2018-08-12T14:45:24.822Z,16544.00